الصفحة الرئيسية
METAR-TAF:

METAR-TAF

مطار :

مطار السليمانية الدولي

السليمانية, العراق

دائرة عرض: 35-33-39N, خط طول: 45-18-52E, ارتفاع: 760 متر

مراقبة الطقس الحالي

تاريخ ووقت الإصدار 17 دقيقة قبل الساعة 16:00UTC
ريح 8 عقدة من الشمال
درجة الحرارة 36°درجة مئوية
الرطوبة 16%
ضغط 1009 hPa
الرؤية 10 كم أو أكثر
الغيوم لا تقل 1500 م ولا وجود لمزنة ركامية السحاب الأسود

METAR: ORSU 201600Z 35008KT CAVOK 36/06 Q1009

زمن: 19:17 (16:17 UTC)

توقعات

تاريخ ووقت الإصدار 5ساعات و 17 دقيقة قبل الساعة 11:00UTC
التوقعات صالحة من20 الساعة 12 UTC إلى 21 الساعة 12 UTC
ريح 12 عقدة من الشمال الشرقي
الرؤية 10 كم أو أكثر
الغيوم لا تقل 1500 م ولا وجود لمزنة ركامية السحاب الأسود
أصبح
من 21 الساعة 05 UTC إلى 21 الساعة 07 UTC
ريح 12 عقدة من الشمال الغربي
الرؤية 10 كم أو أكثر
غيوم قليلة على ارتفاع 4500 قدم

TAF: ORSU 201100Z 2012/2112 04012KT CAVOK BECMG 2105/2107 32012KT 9999 FEW045

أرصاد الطقس والتوقعات من أكثر من 4000 مطار (تقارير الطقس للمطار METAR والتنبؤ بالطقس بالمطارTAF).

المحطات المتاحة هي النقط الصفراء والحمراء على الخريطة.

حرك المؤشر فوق النقطة لمعرفة اسم المحطة.

ثم انقر لمعرفة أرصاد وتوقعات الطقس.

لتغيير الخارطة: اضغط على الأزرار الخضراء مع رمز الصليب الأسود للتكبير. على الزر الأخضر مع شرطة للتصغير، أو على الأسهم الخضراء للخرائط المجاورة.


METAR-TAF: